Seymour Johnson Air Force Base

Airport
ICAO code: 
KGSB
Summary
ICAO Region: 
NAM
Territory: 
Location: 
Goldsboro, North Carolina,
Elevation: 
109 ft
Coordinates: 
Aerial View: 
35° 20' 24.346" N, 77° 57' 41.516" W
Metar
Observation
KGSB 021356Z 22007KT 10SM SCT170 BKN250 12/04 A3003 RMK AO2A SLP173 T01210038 $
Station
Seymour-Johnson Air Force Base
Date/Time
2021-12-02 13:56:00
Wind direction
220°
Wind speed
07 kts
Lowest cloud amount
scattered clouds
Temperature
12.1°C
Dew point
3.8°C
Humidity
56%
Weather condition
n/a

Description

Seymour Johnson Air Force Base is a United States Air Force installation located 10 km southeast of the central business district of Goldsboro, North Carolina.

Climatology

Humid “subtropical” climate (Köppen climate classification Cfa) - characterized by hot, humid summers and cool winters. Significant amounts of precipitation occur in all seasons in most areas. Winter rainfall (and sometimes snowfall) is associated with large storms that the westerlies steer from west to east. Most summer rainfall occurs during thunderstorms and occasional tropical storms (hurricanes).

Runways

Designator Length Width Surface Rops
8/26 3584 91 PEM Yes/Yes
Airport map: 
Aerial View: 

SKYbrary Partners:

Safety knowledge contributed by: